Portada
METAR-TAF:

METAR-TAF

Aeroports :

Caldwell, Nova Jersey, Estats Units d'Amèrica

latitud: 40-52-35N, longitud: 074-16-59W, altitud: 52 m

Observació

L'informe es va fer fa 2 hores i 0 minuts, a les 18:53 UTC
Vent 6 kt amb direcció variable
Temperatura 18°C
Humitat 59%
Pressió 1014 hPa
Visibilitat: 16.1 km
Núvols disperses a una alçada de 3600 ft

METAR: KCDW 261853Z VRB06KT 10SM SCT036 18/10 A2994 RMK AO2 SLP145 T01830100 $

Hora: 15:53 (20:53 UTC)


TAF: manca

Observacions i pronòstics meteorològics de més de 4000 aeroports (METAR i TAF).

Les estacions disponibles són els punts grocs i vermells al mapa.

Posi el ratolí al punt desitjat per veure el nom de l'estació.

Feu clic per veure les observacions i els pronòstics meteorològics.

Per canviar el mapa: feu clic els botons verds amb una creu de color negre per apropar; al botó verd amb un guió per allunyar la imatge; o en les fletxes verdes per a mapes adjacents.


METAR-TAF: